Time;durP1;ratioP1;P1;durP2;ratioP2;P2;SDS_P1;SDS_P2;PMS_P1;PMS_P2;Temp;Humidity;BMP_temperature;BMP_pressure;BME280_temperature;BME280_humidity;BME280_pressure;Samples;Min_cycle;Max_cycle;Signal;HPM_P1;HPM_P2
2023/07/14 00:00:34;;;;;;;4.93;3.97;;;15.00;99.90;;;;;;5073031;28;20233;-55
2023/07/14 00:03:02;;;;;;;4.20;3.90;;;14.90;99.90;;;;;;5077137;28;20189;-53
2023/07/14 00:05:34;;;;;;;4.77;4.00;;;14.90;99.90;;;;;;5081349;28;20213;-57
2023/07/14 00:08:02;;;;;;;4.90;3.90;;;14.90;99.90;;;;;;5073423;28;20194;-56
2023/07/14 00:10:31;;;;;;;4.90;4.33;;;14.80;99.90;;;;;;5082307;28;20198;-51
2023/07/14 00:12:59;;;;;;;4.70;4.30;;;14.80;99.90;;;;;;5073892;28;20839;-50
2023/07/14 00:15:26;;;;;;;5.43;4.37;;;14.80;99.90;;;;;;5044000;28;20242;-48
2023/07/14 00:17:57;;;;;;;4.97;4.20;;;14.90;99.90;;;;;;5072405;28;20217;-57
2023/07/14 00:20:26;;;;;;;5.03;4.60;;;14.80;99.90;;;;;;5080213;28;20654;-50
2023/07/14 00:22:54;;;;;;;5.97;4.30;;;14.80;99.90;;;;;;5076271;28;20209;-57
2023/07/14 00:25:22;;;;;;;7.10;4.53;;;14.80;99.90;;;;;;5080724;28;20289;-47
2023/07/14 00:27:50;;;;;;;5.20;4.70;;;14.80;99.90;;;;;;5076028;28;20178;-54
2023/07/14 00:30:19;;;;;;;5.03;4.60;;;14.80;99.90;;;;;;5058895;28;20198;-50
2023/07/14 00:32:50;;;;;;;4.80;4.27;;;14.80;99.90;;;;;;5068962;28;20206;-55
2023/07/14 00:35:23;;;;;;;5.97;4.40;;;14.80;99.90;;;;;;5080605;28;20225;-47
2023/07/14 00:37:54;;;;;;;4.73;4.33;;;14.80;99.90;;;;;;5069806;28;20198;-56
2023/07/14 00:40:25;;;;;;;5.03;4.63;;;14.70;99.90;;;;;;5074385;28;20222;-48
2023/07/14 00:42:56;;;;;;;4.33;4.03;;;14.70;99.90;;;;;;5082868;28;20186;-57
2023/07/14 00:45:24;;;;;;;4.30;3.80;;;;;;;;;;5059082;28;20221;-48
2023/07/14 00:47:55;;;;;;;5.03;4.53;;;14.70;99.90;;;;;;5077159;28;20292;-51
2023/07/14 00:50:31;;;;;;;4.70;4.30;;;14.60;99.90;;;;;;5056358;28;20246;-48
2023/07/14 00:53:02;;;;;;;6.90;4.47;;;14.60;99.90;;;;;;5073305;28;20251;-56
2023/07/14 00:55:36;;;;;;;5.53;5.03;;;14.60;99.90;;;;;;5077954;28;20221;-48
2023/07/14 00:58:05;;;;;;;5.30;4.83;;;14.50;99.90;;;;;;5079933;28;20194;-57
2023/07/14 01:00:32;;;;;;;5.47;4.47;;;14.50;99.90;;;;;;5056518;28;20218;-53
2023/07/14 01:03:03;;;;;;;8.17;4.63;;;14.50;99.90;;;;;;5072706;28;20296;-52
2023/07/14 01:05:32;;;;;;;5.87;5.07;;;14.50;99.90;;;;;;5069498;28;20967;-54
2023/07/14 01:07:59;;;;;;;5.00;4.50;;;14.50;99.90;;;;;;5082723;28;20198;-55
2023/07/14 01:10:29;;;;;;;5.17;4.70;;;14.40;99.90;;;;;;5071680;28;20260;-51
2023/07/14 01:13:01;;;;;;;4.47;4.07;;;14.40;99.90;;;;;;5082919;28;20186;-55
2023/07/14 01:15:28;;;;;;;6.60;4.60;;;14.40;99.90;;;;;;5053466;28;20290;-47
2023/07/14 01:17:56;;;;;;;5.43;4.93;;;14.40;99.90;;;;;;5075495;28;20267;-57
2023/07/14 01:20:24;;;;;;;5.73;4.67;;;14.40;99.90;;;;;;5074797;28;20206;-50
2023/07/14 01:23:03;;;;;;;4.67;4.33;;;14.30;99.90;;;;;;5080290;28;20190;-56
2023/07/14 01:25:45;;;;;;;5.10;4.70;;;14.40;99.90;;;;;;5071424;28;20226;-54
2023/07/14 01:28:16;;;;;;;7.40;4.20;;;14.40;99.90;;;;;;5074168;28;20239;-47
2023/07/14 01:30:43;;;;;;;5.27;4.40;;;14.30;99.90;;;;;;5050592;28;20314;-51
2023/07/14 01:33:15;;;;;;;5.63;5.13;;;14.30;99.90;;;;;;5079052;28;20190;-48
2023/07/14 01:35:46;;;;;;;5.17;4.40;;;14.30;99.90;;;;;;5073178;28;20226;-52
2023/07/14 01:38:13;;;;;;;4.57;4.17;;;14.30;99.90;;;;;;5069756;28;20286;-50
2023/07/14 01:40:41;;;;;;;8.00;4.90;;;14.30;99.90;;;;;;5069402;28;20214;-55
2023/07/14 01:43:12;;;;;;;4.63;4.23;;;14.20;99.90;;;;;;5079862;28;20182;-50
2023/07/14 01:45:48;;;;;;;5.60;3.97;;;14.20;99.90;;;;;;5081873;28;20939;-55
2023/07/14 01:48:18;;;;;;;5.77;4.60;;;14.20;99.90;;;;;;5056469;28;20289;-50
2023/07/14 01:50:49;;;;;;;4.80;4.40;;;14.20;99.90;;;;;;5060675;28;20277;-52
2023/07/14 01:53:21;;;;;;;5.23;4.43;;;14.10;99.90;;;;;;5076759;28;20281;-49
2023/07/14 01:55:48;;;;;;;5.07;4.63;;;14.10;99.90;;;;;;5078507;28;20210;-58
2023/07/14 01:58:21;;;;;;;5.53;4.93;;;14.10;99.90;;;;;;5082066;28;20199;-49
2023/07/14 02:00:52;;;;;;;5.13;4.50;;;14.10;99.90;;;;;;5084856;28;20422;-56
2023/07/14 02:03:27;;;;;;;6.47;4.50;;;14.10;99.90;;;;;;5055272;28;20230;-47
2023/07/14 02:05:53;;;;;;;5.93;4.23;;;14.10;99.90;;;;;;5078503;28;20216;-57
2023/07/14 02:08:24;;;;;;;7.33;4.13;;;14.10;99.90;;;;;;5077181;28;20265;-47
2023/07/14 02:10:51;;;;;;;5.57;4.50;;;14.10;99.90;;;;;;5077723;28;20769;-54
2023/07/14 02:13:18;;;;;;;5.33;3.90;;;14.10;99.90;;;;;;5081813;28;20273;-47
2023/07/14 02:15:45;;;;;;;5.73;4.70;;;14.00;99.90;;;;;;5078076;28;20205;-55
2023/07/14 02:18:18;;;;;;;5.10;4.67;;;14.00;99.90;;;;;;5064470;28;20224;-51
2023/07/14 02:20:47;;;;;;;4.70;4.30;;;14.00;99.90;;;;;;5076065;28;20291;-57
2023/07/14 02:23:17;;;;;;;4.77;4.17;;;14.00;99.90;;;;;;5084922;28;20213;-50
2023/07/14 02:25:47;;;;;;;6.33;4.13;;;14.00;99.90;;;;;;5070421;28;22725;-51
2023/07/14 02:28:15;;;;;;;4.30;3.90;;;14.10;99.90;;;;;;5077700;28;20661;-47
2023/07/14 02:30:46;;;;;;;5.93;4.40;;;14.10;99.90;;;;;;5079908;28;20887;-55
2023/07/14 02:33:17;;;;;;;5.70;4.83;;;;;;;;;;5058090;28;20202;-48
2023/07/14 02:35:51;;;;;;;4.60;4.20;;;13.90;99.90;;;;;;5076557;28;22352;-57
2023/07/14 02:38:19;;;;;;;4.07;3.67;;;13.90;99.90;;;;;;5077095;28;20225;-51
2023/07/14 02:40:50;;;;;;;3.37;3.00;;;13.80;99.90;;;;;;5075235;28;20217;-47
2023/07/14 02:43:18;;;;;;;5.47;3.63;;;13.70;99.90;;;;;;5076475;28;20301;-47
2023/07/14 02:45:51;;;;;;;7.07;4.50;;;13.70;99.90;;;;;;5083415;28;20260;-57
2023/07/14 02:48:25;;;;;;;5.53;4.27;;;13.70;99.90;;;;;;5058116;28;20573;-51
2023/07/14 02:50:52;;;;;;;3.90;3.60;;;13.60;99.90;;;;;;5078435;28;20193;-53
2023/07/14 02:53:19;;;;;;;4.07;3.77;;;13.60;99.90;;;;;;5078033;28;20202;-51
2023/07/14 02:55:46;;;;;;;4.47;4.07;;;13.60;99.90;;;;;;5074552;28;20245;-57
2023/07/14 02:58:13;;;;;;;4.23;3.50;;;13.50;99.90;;;;;;5076750;28;20194;-48
2023/07/14 03:00:40;;;;;;;4.57;3.43;;;13.50;99.90;;;;;;5082301;28;20225;-55
2023/07/14 03:03:07;;;;;;;4.03;3.40;;;13.50;99.90;;;;;;5077441;28;20608;-57
2023/07/14 03:05:35;;;;;;;3.63;3.43;;;13.40;99.90;;;;;;5059068;28;20233;-55
2023/07/14 03:08:03;;;;;;;3.97;3.37;;;13.40;99.90;;;;;;5077921;28;20228;-55
2023/07/14 03:10:29;;;;;;;4.17;3.77;;;13.40;99.90;;;;;;5074522;28;20186;-48
2023/07/14 03:12:56;;;;;;;4.07;3.73;;;13.40;99.90;;;;;;5063297;28;20201;-52
2023/07/14 03:15:24;;;;;;;5.13;4.10;;;13.50;99.90;;;;;;5074086;28;20706;-49
2023/07/14 03:17:51;;;;;;;4.43;4.13;;;13.50;99.90;;;;;;5082771;28;20186;-55
2023/07/14 03:20:18;;;;;;;5.23;4.30;;;13.50;99.90;;;;;;5061717;28;20241;-50
2023/07/14 03:22:46;;;;;;;4.73;4.23;;;13.50;99.90;;;;;;5075222;28;20205;-58
2023/07/14 03:25:13;;;;;;;4.47;4.13;;;13.50;99.90;;;;;;5081798;28;20747;-50
2023/07/14 03:27:40;;;;;;;6.50;4.43;;;13.50;99.90;;;;;;5062375;28;20210;-55
2023/07/14 03:30:08;;;;;;;5.43;4.30;;;13.50;99.90;;;;;;5083559;28;20190;-58
2023/07/14 03:32:35;;;;;;;6.47;4.57;;;13.60;99.90;;;;;;5080709;28;20182;-51
2023/07/14 03:35:02;;;;;;;5.10;4.40;;;13.70;99.90;;;;;;5065012;28;20769;-46
2023/07/14 03:37:29;;;;;;;4.37;4.03;;;13.70;99.90;;;;;;5061270;28;20202;-56
2023/07/14 03:39:57;;;;;;;5.03;4.63;;;13.70;99.90;;;;;;5080812;28;20218;-54
2023/07/14 03:42:24;;;;;;;5.37;4.90;;;13.70;99.90;;;;;;5080681;28;20323;-53
2023/07/14 03:44:51;;;;;;;4.63;4.23;;;13.70;99.90;;;;;;5065770;28;20286;-51
2023/07/14 03:47:17;;;;;;;4.47;4.07;;;13.70;99.90;;;;;;5076030;28;20182;-57
2023/07/14 03:49:44;;;;;;;5.23;4.63;;;13.70;99.90;;;;;;5079425;28;20842;-52
2023/07/14 03:52:13;;;;;;;9.50;4.93;;;13.80;99.90;;;;;;5048981;28;20198;-47
2023/07/14 03:54:40;;;;;;;5.47;4.97;;;13.70;99.90;;;;;;5081466;28;20708;-56
2023/07/14 03:57:08;;;;;;;4.77;4.37;;;13.80;99.90;;;;;;5081632;28;20194;-48
2023/07/14 03:59:34;;;;;;;7.17;4.80;;;13.80;99.90;;;;;;5075848;28;20206;-52
2023/07/14 04:02:02;;;;;;;5.43;5.03;;;13.80;99.90;;;;;;5070453;28;20198;-50
2023/07/14 04:04:30;;;;;;;6.13;5.60;;;13.80;99.90;;;;;;5075403;28;20289;-54
2023/07/14 04:06:57;;;;;;;5.80;5.30;;;13.80;99.90;;;;;;5049341;28;20205;-50
2023/07/14 04:09:23;;;;;;;6.87;5.63;;;13.90;99.90;;;;;;5073484;28;20186;-54
2023/07/14 04:11:51;;;;;;;5.90;5.30;;;13.90;99.90;;;;;;5083566;28;20667;-55
2023/07/14 04:14:19;;;;;;;7.33;5.17;;;13.90;99.90;;;;;;5064859;28;20197;-53
2023/07/14 04:16:46;;;;;;;7.43;5.40;;;14.00;99.90;;;;;;5083447;28;20217;-57
2023/07/14 04:19:13;;;;;;;6.23;5.63;;;14.00;99.90;;;;;;5077505;28;20186;-48
2023/07/14 04:21:40;;;;;;;6.80;5.97;;;14.10;99.90;;;;;;5082212;28;20221;-54
2023/07/14 04:24:07;;;;;;;6.63;6.03;;;14.10;99.90;;;;;;5054623;28;20234;-48
2023/07/14 04:26:34;;;;;;;6.00;5.27;;;14.10;99.90;;;;;;5072836;28;20197;-57
2023/07/14 04:29:01;;;;;;;6.67;5.53;;;14.10;99.90;;;;;;5080967;28;20198;-61
2023/07/14 04:31:29;;;;;;;7.10;6.00;;;14.10;99.90;;;;;;5075576;28;20205;-46
2023/07/14 04:33:56;;;;;;;8.00;6.73;;;14.20;99.90;;;;;;5087227;28;20241;-46
2023/07/14 04:36:23;;;;;;;9.90;7.23;;;14.20;99.90;;;;;;5075945;28;20243;-52
2023/07/14 04:39:03;;;;;;;10.37;6.47;;;14.30;99.90;;;;;;5054694;28;20221;-51
2023/07/14 04:41:31;;;;;;;9.13;6.47;;;14.30;99.90;;;;;;5071191;28;20213;-52
2023/07/14 04:43:57;;;;;;;6.93;6.27;;;14.30;99.90;;;;;;5077100;28;20182;-57
2023/07/14 04:46:24;;;;;;;8.80;6.67;;;14.40;99.90;;;;;;5072070;28;20999;-45
2023/07/14 04:48:53;;;;;;;9.83;6.70;;;14.40;99.90;;;;;;5073032;28;20210;-57
2023/07/14 04:51:20;;;;;;;6.87;6.27;;;14.40;99.90;;;;;;5069459;28;20189;-51
2023/07/14 04:53:47;;;;;;;8.03;6.90;;;14.50;99.90;;;;;;5058304;28;20206;-47
2023/07/14 04:56:14;;;;;;;7.97;7.17;;;14.50;99.90;;;;;;5066392;28;20266;-61
2023/07/14 04:58:40;;;;;;;9.80;7.87;;;14.50;99.90;;;;;;5079834;28;20255;-51
2023/07/14 05:01:07;;;;;;;9.23;7.17;;;14.60;99.90;;;;;;5070431;28;20262;-62
2023/07/14 05:03:34;;;;;;;9.30;7.70;;;14.60;99.90;;;;;;5070052;28;20286;-47
2023/07/14 05:06:02;;;;;;;8.90;7.87;;;14.70;99.90;;;;;;5073397;28;20558;-58
2023/07/14 05:08:29;;;;;;;8.40;7.70;;;14.70;99.90;;;;;;5075480;28;20202;-45
2023/07/14 05:10:56;;;;;;;9.63;8.03;;;14.80;99.90;;;;;;5053650;28;20206;-43
2023/07/14 05:13:23;;;;;;;12.43;8.73;;;14.80;99.90;;;;;;5064351;28;20937;-54
2023/07/14 05:15:50;;;;;;;9.97;7.57;;;14.80;99.90;;;;;;5071283;28;20327;-48
2023/07/14 05:18:17;;;;;;;9.07;7.87;;;14.90;99.90;;;;;;5074770;28;20197;-57
2023/07/14 05:20:44;;;;;;;9.77;8.77;;;15.00;99.90;;;;;;5075193;28;20210;-47
2023/07/14 05:23:12;;;;;;;9.37;8.30;;;15.10;99.90;;;;;;5077701;28;20205;-56
2023/07/14 05:25:39;;;;;;;10.20;8.20;;;15.10;99.90;;;;;;5059223;28;20727;-53
2023/07/14 05:28:06;;;;;;;10.57;9.30;;;15.20;99.90;;;;;;5078084;28;20259;-60
2023/07/14 05:30:33;;;;;;;9.93;8.93;;;15.20;99.90;;;;;;5069302;28;20203;-43
2023/07/14 05:33:00;;;;;;;13.40;9.53;;;15.30;99.90;;;;;;5082502;28;20590;-57
2023/07/14 05:35:27;;;;;;;14.60;9.23;;;15.30;99.90;;;;;;5076517;28;20218;-44
2023/07/14 05:37:56;;;;;;;10.87;9.27;;;15.40;99.90;;;;;;5071892;28;20198;-45
2023/07/14 05:40:25;;;;;;;9.83;8.70;;;15.40;99.90;;;;;;5056608;28;20302;-48
2023/07/14 05:42:52;;;;;;;12.33;9.63;;;15.50;99.90;;;;;;5086036;28;20190;-46
2023/07/14 05:45:18;;;;;;;10.23;9.00;;;15.50;99.90;;;;;;5068390;28;20209;-49
2023/07/14 05:47:47;;;;;;;12.23;9.33;;;15.60;99.90;;;;;;5073268;28;20283;-50
2023/07/14 05:50:15;;;;;;;10.60;9.50;;;15.60;99.90;;;;;;5074183;28;20190;-58
2023/07/14 05:52:43;;;;;;;10.70;9.27;;;15.70;99.90;;;;;;5080349;28;20626;-50
2023/07/14 05:55:10;;;;;;;12.77;9.67;;;15.80;99.90;;;;;;5070120;28;20267;-58
2023/07/14 05:57:39;;;;;;;9.77;8.77;;;15.80;99.90;;;;;;5047055;28;20319;-57
2023/07/14 06:00:13;;;;;;;11.43;9.93;;;15.90;99.90;;;;;;5058625;28;20306;-51
2023/07/14 06:02:42;;;;;;;10.37;9.30;;;15.90;99.90;;;;;;5067996;28;20233;-54
2023/07/14 06:05:10;;;;;;;11.90;8.97;;;16.00;99.90;;;;;;5074505;28;20983;-43
2023/07/14 06:07:38;;;;;;;10.27;9.27;;;16.10;99.90;;;;;;5076462;28;20198;-57
2023/07/14 06:10:06;;;;;;;10.33;9.20;;;16.10;99.90;;;;;;5083460;28;20178;-60
2023/07/14 06:12:33;;;;;;;13.47;9.70;;;16.20;99.90;;;;;;5053995;28;20213;-58
2023/07/14 06:15:01;;;;;;;12.50;8.93;;;16.20;99.90;;;;;;5070365;28;20225;-60
2023/07/14 06:17:28;;;;;;;13.97;8.93;;;16.40;99.90;;;;;;5060137;28;20206;-54
2023/07/14 06:20:12;;;;;;;10.60;8.77;;;16.40;99.90;;;;;;5069254;28;20210;-48
2023/07/14 06:22:42;;;;;;;9.57;8.57;;;16.50;99.90;;;;;;5062204;28;20210;-56
2023/07/14 06:25:41;;;;;;;13.00;8.97;;;16.60;99.90;;;;;;5075952;28;20220;-54
2023/07/14 06:28:08;;;;;;;9.60;8.60;;;16.60;99.90;;;;;;5056493;28;20237;-53
2023/07/14 06:30:37;;;;;;;9.47;8.67;;;16.70;99.90;;;;;;5071008;28;20279;-58
2023/07/14 06:33:04;;;;;;;10.10;8.27;;;16.80;99.90;;;;;;5063319;28;20317;-49
2023/07/14 06:35:31;;;;;;;10.57;8.83;;;16.90;99.90;;;;;;5083264;28;20230;-57
2023/07/14 06:37:58;;;;;;;8.67;7.73;;;16.90;99.90;;;;;;5069517;28;20206;-48
2023/07/14 06:40:25;;;;;;;9.30;7.43;;;17.00;99.90;;;;;;5076307;28;20688;-57
2023/07/14 06:42:52;;;;;;;9.10;7.80;;;17.10;99.90;;;;;;5044444;28;20314;-51
2023/07/14 06:45:19;;;;;;;8.83;7.33;;;17.20;99.90;;;;;;5080270;28;20727;-49
2023/07/14 06:47:47;;;;;;;10.70;7.17;;;17.20;99.90;;;;;;5072752;28;20206;-53
2023/07/14 06:50:14;;;;;;;8.07;7.03;;;17.30;99.90;;;;;;5073612;28;20287;-45
2023/07/14 06:52:42;;;;;;;9.10;7.13;;;17.30;99.90;;;;;;5072866;28;20205;-57
2023/07/14 06:55:10;;;;;;;9.00;6.77;;;17.40;99.90;;;;;;5072335;28;20228;-44
2023/07/14 06:57:37;;;;;;;8.17;7.33;;;17.50;99.90;;;;;;5059803;28;20652;-54
2023/07/14 07:00:08;;;;;;;9.47;6.20;;;17.40;99.90;;;;;;5068289;28;20219;-50
2023/07/14 07:02:35;;;;;;;8.10;6.50;;;17.50;99.90;;;;;;5059836;28;20285;-45
2023/07/14 07:05:05;;;;;;;9.27;6.60;;;17.60;99.90;;;;;;5070521;28;20230;-50
2023/07/14 07:07:31;;;;;;;8.73;6.50;;;17.60;99.90;;;;;;5073159;28;20201;-49
2023/07/14 07:09:58;;;;;;;8.60;6.77;;;17.70;99.90;;;;;;5074878;28;20210;-52
2023/07/14 07:12:25;;;;;;;8.97;6.50;;;17.80;99.90;;;;;;5066790;28;20264;-47
2023/07/14 07:14:52;;;;;;;13.50;7.53;;;17.80;99.90;;;;;;5052943;28;20257;-51
2023/07/14 07:17:26;;;;;;;6.47;5.87;;;17.80;99.90;;;;;;5061880;28;20885;-46
2023/07/14 07:20:03;;;;;;;7.70;6.30;;;17.90;99.90;;;;;;5068955;28;20198;-51
2023/07/14 07:22:50;;;;;;;7.33;5.93;;;18.00;99.90;;;;;;5066985;28;20226;-53
2023/07/14 07:25:40;;;;;;;8.80;5.57;;;18.00;99.90;;;;;;5063885;28;20225;-52
2023/07/14 07:28:23;;;;;;;11.37;6.47;;;18.10;99.90;;;;;;5084549;28;20207;-53
2023/07/14 07:30:57;;;;;;;6.37;5.73;;;18.10;99.90;;;;;;5060011;28;20206;-53
2023/07/14 07:33:29;;;;;;;9.17;5.27;;;18.20;99.90;;;;;;5069790;28;20201;-46
2023/07/14 07:36:16;;;;;;;6.60;5.13;;;18.20;99.90;;;;;;5060999;28;20312;-56
2023/07/14 07:38:55;;;;;;;6.67;5.80;;;18.30;99.90;;;;;;5068728;28;20316;-43
2023/07/14 07:41:39;;;;;;;7.53;5.30;;;18.30;99.90;;;;;;5072847;28;20198;-43
2023/07/14 07:44:39;;;;;;;9.30;5.80;;;18.30;99.90;;;;;;5069137;28;20213;-52
2023/07/14 07:47:30;;;;;;;7.17;4.87;;;18.40;99.90;;;;;;5045051;28;20217;-55
2023/07/14 07:53:37;;;;;;;6.73;4.77;;;18.60;99.90;;;;;;5059402;28;20189;-43
2023/07/14 07:56:43;;;;;;;7.60;4.10;;;18.60;99.90;;;;;;5071322;28;20217;-48
2023/07/14 07:59:26;;;;;;;9.53;4.47;;;18.70;99.90;;;;;;5061013;28;20197;-47
2023/07/14 08:01:59;;;;;;;8.43;4.10;;;18.80;99.90;;;;;;5042079;28;20570;-52
2023/07/14 08:04:38;;;;;;;8.33;3.27;;;18.90;99.90;;;;;;5074068;28;20958;-45
2023/07/14 08:07:14;;;;;;;4.50;3.63;;;18.90;99.90;;;;;;5065810;28;20247;-57
2023/07/14 08:09:48;;;;;;;4.10;3.27;;;19.00;99.90;;;;;;5066676;28;20202;-44
2023/07/14 08:15:14;;;;;;;3.57;2.43;;;19.20;99.90;;;;;;5034776;28;20249;-58
2023/07/14 08:17:59;;;;;;;2.80;2.60;;;19.20;99.90;;;;;;5069174;28;20209;-46
2023/07/14 08:20:29;;;;;;;3.30;2.57;;;19.30;99.90;;;;;;5077685;28;20189;-50
2023/07/14 08:23:07;;;;;;;4.67;2.50;;;19.40;99.90;;;;;;5077535;28;20193;-58
2023/07/14 08:25:37;;;;;;;5.20;2.13;;;19.50;99.90;;;;;;5067916;28;20901;-46
2023/07/14 08:28:13;;;;;;;3.37;2.60;;;19.50;99.90;;;;;;5077601;28;20186;-56
2023/07/14 08:30:44;;;;;;;2.80;2.60;;;19.60;99.90;;;;;;5073244;28;20194;-47
2023/07/14 08:33:14;;;;;;;3.03;2.53;;;19.70;99.90;;;;;;5045107;28;20206;-50
2023/07/14 08:35:41;;;;;;;6.10;2.90;;;19.80;99.90;;;;;;5059079;28;20381;-54
2023/07/14 08:38:08;;;;;;;4.00;2.47;;;19.50;99.90;;;;;;5063010;28;20215;-46
2023/07/14 08:40:54;;;;;;;2.30;2.03;;;;;;;;;;5067865;28;20272;-47
2023/07/14 08:43:44;;;;;;;5.63;2.57;;;;;;;;;;5076297;28;20214;-45
2023/07/14 08:46:38;;;;;;;4.63;2.60;;;;;;;;;;5069458;28;20317;-43
2023/07/14 08:49:30;;;;;;;4.53;2.50;;;;;;;;;;5046182;28;20209;-46
2023/07/14 08:55:36;;;;;;;2.73;2.53;;;20.20;99.90;;;;;;5067711;28;20232;-49
2023/07/14 08:58:13;;;;;;;4.10;2.87;;;;;;;;;;5073788;28;20968;-51
2023/07/14 09:01:10;;;;;;;4.60;2.57;;;;;;;;;;5068442;28;20659;-57
2023/07/14 09:03:48;;;;;;;3.63;2.20;;;;;;;;;;5062466;28;20304;-54
2023/07/14 09:06:39;;;;;;;3.40;2.23;;;20.40;99.90;;;;;;5078779;28;20952;-45
2023/07/14 09:12:17;;;;;;;4.30;2.20;;;;;;;;;;5039686;28;21810;-49
2023/07/14 09:15:10;;;;;;;3.50;2.07;;;20.90;99.90;;;;;;5076843;28;20238;-56
2023/07/14 09:18:04;;;;;;;2.00;1.80;;;20.90;99.90;;;;;;5073832;28;20194;-46
2023/07/14 09:21:09;;;;;;;2.03;1.83;;;20.70;99.90;;;;;;5074306;28;20202;-48
2023/07/14 09:23:58;;;;;;;3.33;1.98;;;20.70;99.90;;;;;;5076905;28;20285;-48
2023/07/14 09:26:36;;;;;;;3.65;2.28;;;20.70;99.90;;;;;;5074080;28;20752;-59
2023/07/14 09:29:12;;;;;;;3.63;2.05;;;20.80;99.90;;;;;;5067813;28;20198;-50
2023/07/14 09:31:48;;;;;;;3.97;1.80;;;20.80;99.90;;;;;;5073766;28;20574;-50
2023/07/14 09:34:39;;;;;;;2.55;1.83;;;20.90;99.90;;;;;;5052962;28;21074;-53
2023/07/14 09:37:20;;;;;;;2.72;1.45;;;21.00;99.90;;;;;;5067329;28;20204;-43
2023/07/14 09:40:09;;;;;;;2.73;1.87;;;21.00;99.90;;;;;;5067387;28;20953;-53
2023/07/14 09:42:40;;;;;;;2.80;1.80;;;21.00;99.90;;;;;;5067614;28;20219;-48
2023/07/14 09:45:23;;;;;;;5.18;1.65;;;21.00;99.90;;;;;;5073994;28;20758;-49
2023/07/14 09:48:02;;;;;;;4.18;1.73;;;21.10;99.90;;;;;;5070632;28;20909;-50
2023/07/14 09:50:53;;;;;;;2.65;1.70;;;21.30;99.90;;;;;;5039898;28;20206;-54
2023/07/14 09:53:56;;;;;;;2.67;1.50;;;21.30;99.90;;;;;;5075000;28;20175;-47
2023/07/14 09:56:42;;;;;;;2.67;1.75;;;21.40;99.90;;;;;;5069873;28;20304;-46
2023/07/14 09:59:52;;;;;;;2.67;1.65;;;21.30;99.90;;;;;;5038147;28;20931;-49
2023/07/14 10:02:30;;;;;;;1.83;1.60;;;21.20;99.90;;;;;;5074455;28;20711;-58
2023/07/14 10:05:18;;;;;;;2.38;2.20;;;21.10;99.90;;;;;;5050959;28;20221;-47
2023/07/14 10:08:23;;;;;;;2.03;1.83;;;21.20;99.90;;;;;;5077906;28;20928;-53
2023/07/14 10:10:50;;;;;;;3.97;2.10;;;21.30;99.90;;;;;;5061046;28;20194;-51
2023/07/14 10:13:21;;;;;;;2.50;2.10;;;21.50;99.90;;;;;;5072378;28;20198;-57
2023/07/14 10:15:54;;;;;;;3.40;1.70;;;21.80;99.90;;;;;;5067612;28;20229;-46
2023/07/14 10:18:22;;;;;;;3.28;1.60;;;21.90;99.90;;;;;;5069532;28;20198;-59
2023/07/14 10:21:01;;;;;;;2.45;1.70;;;21.90;99.90;;;;;;5066468;28;20210;-44
2023/07/14 10:23:30;;;;;;;4.07;1.88;;;21.80;99.90;;;;;;5069720;28;20227;-56
2023/07/14 10:25:56;;;;;;;2.20;1.50;;;22.00;99.90;;;;;;5078217;28;20218;-50
2023/07/14 10:28:27;;;;;;;3.47;1.73;;;22.10;99.90;;;;;;5066380;28;20226;-57
2023/07/14 10:31:18;;;;;;;1.75;1.55;;;22.20;99.90;;;;;;5074276;28;20213;-50
2023/07/14 10:34:06;;;;;;;2.60;1.95;;;22.30;99.90;;;;;;5044943;28;20214;-51
2023/07/14 10:36:40;;;;;;;1.85;1.63;;;22.40;99.90;;;;;;5057418;28;20224;-49
2023/07/14 10:39:14;;;;;;;1.80;1.70;;;22.50;99.90;;;;;;5072430;28;20244;-56
2023/07/14 10:41:45;;;;;;;2.58;1.55;;;22.60;99.90;;;;;;5082601;28;20245;-52
2023/07/14 10:44:17;;;;;;;5.50;1.92;;;22.70;99.90;;;;;;5066175;28;20206;-49
2023/07/14 10:46:47;;;;;;;4.30;1.77;;;22.90;99.90;;;;;;5067946;28;20217;-52
2023/07/14 10:49:25;;;;;;;3.10;1.85;;;22.80;99.90;;;;;;5041007;28;20291;-44
2023/07/14 10:51:56;;;;;;;1.80;1.45;;;22.80;99.90;;;;;;5081603;28;20232;-58
2023/07/14 10:54:46;;;;;;;3.95;1.75;;;22.80;99.90;;;;;;5073382;28;20348;-53
2023/07/14 10:57:24;;;;;;;1.60;1.45;;;22.70;99.90;;;;;;5062964;28;21353;-44
2023/07/14 10:59:57;;;;;;;7.07;2.25;;;22.60;99.90;;;;;;5068528;28;20281;-58
2023/07/14 11:02:32;;;;;;;3.30;2.10;;;22.50;99.90;;;;;;5068343;28;20213;-48
2023/07/14 11:05:03;;;;;;;4.13;2.22;;;22.40;99.90;;;;;;5055194;28;20668;-59
2023/07/14 11:07:32;;;;;;;3.17;2.00;;;22.30;99.90;;;;;;5071166;28;20205;-48
2023/07/14 11:10:04;;;;;;;7.85;2.47;;;22.10;99.90;;;;;;5069248;28;20358;-60
2023/07/14 11:12:39;;;;;;;5.80;1.70;;;22.10;99.90;;;;;;5070834;28;20204;-45
2023/07/14 11:15:22;;;;;;;1.98;1.80;;;22.00;99.90;;;;;;5060976;28;20218;-59
2023/07/14 11:17:57;;;;;;;3.03;1.90;;;22.00;99.90;;;;;;5056328;28;20212;-49
2023/07/14 11:20:30;;;;;;;2.28;1.88;;;22.10;99.90;;;;;;5068711;28;20654;-47
2023/07/14 11:23:11;;;;;;;2.83;1.65;;;22.10;99.90;;;;;;5059689;28;20210;-53
2023/07/14 11:25:46;;;;;;;4.03;1.80;;;22.40;99.90;;;;;;5070335;28;20866;-58
2023/07/14 11:28:25;;;;;;;3.38;1.83;;;22.70;99.90;;;;;;5080722;28;20218;-53
2023/07/14 11:30:57;;;;;;;3.53;1.80;;;22.90;99.90;;;;;;5072814;28;20197;-43
2023/07/14 11:33:30;;;;;;;2.47;1.95;;;23.00;99.90;;;;;;5083114;28;20189;-45
2023/07/14 11:36:04;;;;;;;2.70;1.98;;;23.10;99.90;;;;;;5045431;28;20241;-44
2023/07/14 11:38:40;;;;;;;2.30;2.10;;;23.00;99.90;;;;;;5077381;28;20247;-57
2023/07/14 11:41:08;;;;;;;2.40;2.20;;;22.90;99.90;;;;;;5072772;28;20278;-46
2023/07/14 11:43:36;;;;;;;2.38;2.17;;;22.90;99.90;;;;;;5079181;28;20288;-58
2023/07/14 11:46:05;;;;;;;2.03;1.83;;;23.00;99.90;;;;;;5072913;28;20221;-56
2023/07/14 11:48:37;;;;;;;4.97;2.50;;;23.00;99.90;;;;;;5075315;28;20567;-58
2023/07/14 11:51:13;;;;;;;3.63;2.17;;;23.20;99.90;;;;;;5048288;28;20506;-58
2023/07/14 11:53:42;;;;;;;5.18;2.13;;;23.30;99.90;;;;;;5081280;28;20613;-46
2023/07/14 11:56:24;;;;;;;2.92;2.63;;;23.30;99.90;;;;;;5069321;28;20241;-62
2023/07/14 11:59:04;;;;;;;5.50;2.33;;;23.20;99.90;;;;;;5067027;28;20576;-51
2023/07/14 12:01:31;;;;;;;3.97;2.20;;;23.30;99.90;;;;;;5060870;28;20943;-45
2023/07/14 12:04:21;;;;;;;2.20;2.00;;;23.20;99.90;;;;;;5074790;28;20280;-61
2023/07/14 12:06:49;;;;;;;3.42;2.35;;;23.40;99.90;;;;;;5042041;28;20222;-53
2023/07/14 12:09:18;;;;;;;3.53;2.25;;;23.50;99.90;;;;;;5067035;28;20294;-52
2023/07/14 12:11:53;;;;;;;3.03;2.70;;;23.60;99.90;;;;;;5059066;28;20201;-55
2023/07/14 12:14:47;;;;;;;7.07;2.58;;;23.60;99.90;;;;;;5068593;28;20384;-52
2023/07/14 12:17:50;;;;;;;4.05;2.40;;;23.40;99.90;;;;;;5060911;28;20199;-50
2023/07/14 12:20:36;;;;;;;2.65;2.40;;;23.40;99.90;;;;;;5073154;28;20823;-50
2023/07/14 12:23:24;;;;;;;2.60;2.38;;;23.50;99.90;;;;;;5043529;28;20279;-50
2023/07/14 12:25:52;;;;;;;4.03;2.50;;;;;;;;;;5068339;28;20226;-50
2023/07/14 12:28:26;;;;;;;3.63;2.05;;;23.80;99.90;;;;;;5072849;28;20209;-49
2023/07/14 12:30:54;;;;;;;3.05;2.55;;;23.90;99.90;;;;;;5071287;28;20914;-50
2023/07/14 12:33:24;;;;;;;4.07;2.50;;;23.90;99.90;;;;;;5079261;28;20190;-48
2023/07/14 12:35:52;;;;;;;2.50;2.30;;;23.80;99.90;;;;;;5067034;28;20314;-50
2023/07/14 12:38:22;;;;;;;5.25;2.58;;;23.60;99.90;;;;;;5044039;28;20215;-50
2023/07/14 12:40:51;;;;;;;4.18;2.35;;;23.60;99.90;;;;;;5072496;28;20198;-54
2023/07/14 12:43:41;;;;;;;2.90;2.25;;;23.50;99.90;;;;;;5069730;28;20654;-50
2023/07/14 12:46:15;;;;;;;4.95;2.40;;;23.40;99.90;;;;;;5073871;28;20338;-53
2023/07/14 12:48:43;;;;;;;2.30;2.10;;;23.20;99.90;;;;;;5067644;28;20201;-56
2023/07/14 12:51:16;;;;;;;2.42;2.20;;;23.20;99.90;;;;;;5077633;28;20735;-48
2023/07/14 12:53:49;;;;;;;3.10;2.38;;;23.20;99.90;;;;;;5050479;28;20282;-54
2023/07/14 12:56:15;;;;;;;4.43;2.80;;;23.30;99.90;;;;;;5075854;28;20640;-51
2023/07/14 12:58:44;;;;;;;3.85;2.92;;;23.40;99.90;;;;;;5066020;28;20209;-54
2023/07/14 13:01:11;;;;;;;3.53;2.80;;;23.60;99.90;;;;;;5078456;28;20247;-46
2023/07/14 13:03:38;;;;;;;4.95;2.60;;;23.60;99.90;;;;;;5061690;28;20734;-51
2023/07/14 13:06:05;;;;;;;2.78;2.58;;;23.50;99.90;;;;;;5075891;28;20214;-47
2023/07/14 13:08:33;;;;;;;3.20;2.63;;;23.40;99.90;;;;;;5051870;28;20230;-53
2023/07/14 13:11:00;;;;;;;4.13;2.70;;;23.30;99.90;;;;;;5069242;28;20182;-45
2023/07/14 13:13:34;;;;;;;2.33;2.15;;;23.20;99.90;;;;;;5070724;28;20282;-53
2023/07/14 13:16:04;;;;;;;3.10;2.58;;;23.10;99.90;;;;;;5077939;28;20221;-56
2023/07/14 13:18:34;;;;;;;4.28;2.40;;;23.00;99.90;;;;;;5064009;28;20676;-54
2023/07/14 13:21:04;;;;;;;2.75;2.55;;;23.00;99.90;;;;;;5073227;28;20912;-53
2023/07/14 13:23:32;;;;;;;5.13;2.50;;;22.90;99.90;;;;;;5068595;28;20217;-48
2023/07/14 13:26:12;;;;;;;3.08;2.75;;;22.80;99.90;;;;;;5048061;28;20727;-50
2023/07/14 13:28:41;;;;;;;4.65;3.03;;;22.60;99.90;;;;;;5072921;28;20209;-54
2023/07/14 13:31:16;;;;;;;3.92;2.67;;;22.50;99.90;;;;;;5069347;28;20202;-48